الصفحة الرئيسية
METAR-TAF:

METAR-TAF

مطار :

مطار الملك عبد العزيز الدولي

جدة, السعودية

دائرة عرض: 21-42N, خط طول: 039-11E, ارتفاع: 15 متر

مراقبة الطقس الحالي

تاريخ ووقت الإصدار 52 دقيقة قبل الساعة 18:00UTC
ريح 5 عقدة من الشمال
درجة الحرارة 31°درجة مئوية
الرطوبة 63%
ضغط 1010 hPa
الرؤية 10 كم أو أكثر
الغيوم لا تقل 1500 م ولا وجود لمزنة ركامية السحاب الأسود

METAR: OEJN 161800Z 35005KT CAVOK 31/23 Q1010 NOSIG

زمن: 21:52 (18:52 UTC)

توقعات

تاريخ ووقت الإصدار 1ساعة و 52 دقيقة قبل الساعة 17:00UTC
التوقعات صالحة من16 الساعة 18 UTC إلى 17 الساعة 24 UTC
ريح 6 عقدة من الشمال الشرقي
الرؤية: 6000 متر
غيوم قليلة على ارتفاع 4000 قدم
أصبح
من 17 الساعة 06 UTC إلى 17 الساعة 08 UTC
ريح 6 عقدة من الجنوب الغربي تتزايد حتى 16 عقدة
الرؤية 10 كم أو أكثر
الغيوم لا تقل 1500 م ولا وجود لمزنة ركامية السحاب الأسود

TAF: OEJN 161700Z 1618/1724 04006KT 6000 FEW040 BECMG 1706/1708 22006G16KT CAVOK

أرصاد الطقس والتوقعات من أكثر من 4000 مطار (تقارير الطقس للمطار METAR والتنبؤ بالطقس بالمطارTAF).

المحطات المتاحة هي النقط الصفراء والحمراء على الخريطة.

حرك المؤشر فوق النقطة لمعرفة اسم المحطة.

ثم انقر لمعرفة أرصاد وتوقعات الطقس.

لتغيير الخارطة: اضغط على الأزرار الخضراء مع رمز الصليب الأسود للتكبير. على الزر الأخضر مع شرطة للتصغير، أو على الأسهم الخضراء للخرائط المجاورة.


METAR-TAF: